Time;durP1;ratioP1;P1;durP2;ratioP2;P2;SDS_P1;SDS_P2;PMS_P1;PMS_P2;Temp;Humidity;BMP_temperature;BMP_pressure;BME280_temperature;BME280_humidity;BME280_pressure;Samples;Min_cycle;Max_cycle;Signal;HPM_P1;HPM_P2
2020/12/06 00:00:57;;;;;;;40.33;26.67;;;;;;;4.57;86.64;93765.34;5085443;28;20229;-77
2020/12/06 00:03:23;;;;;;;38.13;25.67;;;;;;;4.60;86.25;93758.13;5075027;28;20202;-77
2020/12/06 00:05:49;;;;;;;33.63;23.50;;;;;;;4.60;86.40;93758.13;5072242;28;20193;-77
2020/12/06 00:08:15;;;;;;;39.30;25.90;;;;;;;4.46;87.45;93759.75;5081691;28;20223;-78
2020/12/06 00:10:41;;;;;;;39.37;26.07;;;;;;;4.35;88.65;93744.19;5062196;28;20224;-77
2020/12/06 00:13:10;;;;;;;42.87;25.83;;;;;;;4.29;88.70;93739.81;5063627;28;20224;-76
2020/12/06 00:15:36;;;;;;;35.47;24.70;;;;;;;4.23;89.84;93759.19;5076470;28;20236;-79
2020/12/06 00:18:02;;;;;;;35.50;22.87;;;;;;;4.07;90.56;93772.94;5070623;28;20193;-78
2020/12/06 00:20:30;;;;;;;32.63;23.03;;;;;;;3.92;91.41;93776.50;5055869;28;20228;-79
2020/12/06 00:22:56;;;;;;;31.80;21.87;;;;;;;3.73;92.81;93760.84;5056646;28;20205;-78
2020/12/06 00:25:22;;;;;;;36.80;23.33;;;;;;;3.83;92.64;93755.47;5067308;28;20194;-79
2020/12/06 00:27:48;;;;;;;31.17;23.10;;;;;;;3.85;92.44;93750.22;5055600;28;20614;-78
2020/12/06 00:30:14;;;;;;;31.90;22.77;;;;;;;3.98;91.37;93750.31;5065438;28;20220;-77
2020/12/06 00:32:41;;;;;;;30.20;22.83;;;;;;;4.05;89.99;93748.59;5068412;28;20198;-78
2020/12/06 00:35:07;;;;;;;28.93;21.67;;;;;;;4.21;88.67;93750.16;5096528;22;20228;-79
2020/12/06 00:37:36;;;;;;;27.47;20.93;;;;;;;4.34;87.87;93757.91;5093838;28;20584;-78
2020/12/06 00:40:02;;;;;;;27.63;21.63;;;;;;;4.40;86.74;93765.59;5086751;28;20193;-78
2020/12/06 00:42:28;;;;;;;28.63;21.93;;;;;;;4.43;86.72;93756.78;5080178;28;20193;-77
2020/12/06 00:44:54;;;;;;;27.27;20.73;;;;;;;4.46;86.71;93743.69;5098863;28;20235;-78
2020/12/06 00:47:20;;;;;;;27.40;20.70;;;;;;;4.55;86.43;93745.13;5093487;28;20204;-77
2020/12/06 00:49:46;;;;;;;27.50;20.93;;;;;;;4.61;86.48;93738.53;5083446;28;20200;-78
2020/12/06 00:52:12;;;;;;;24.80;19.93;;;;;;;4.65;85.61;93748.13;5094388;28;20204;-76
2020/12/06 00:54:39;;;;;;;26.20;20.63;;;;;;;4.70;85.15;93760.34;5093725;28;20463;-78
2020/12/06 00:57:05;;;;;;;28.00;21.23;;;;;;;4.71;85.14;93752.50;5094203;28;20210;-77
2020/12/06 00:59:31;;;;;;;27.63;20.40;;;;;;;4.74;85.37;93769.97;5076441;28;20192;-77
2020/12/06 01:01:57;;;;;;;26.57;20.37;;;;;;;4.79;85.22;93734.53;5073775;28;20258;-77
2020/12/06 01:04:23;;;;;;;28.80;20.67;;;;;;;4.80;84.96;93731.00;5090331;28;20633;-78
2020/12/06 01:06:49;;;;;;;27.33;20.57;;;;;;;4.79;85.03;93728.63;5087122;28;20219;-79
2020/12/06 01:09:15;;;;;;;26.47;20.80;;;;;;;4.80;84.60;93735.31;5075145;28;20200;-79
2020/12/06 01:11:41;;;;;;;24.43;19.43;;;;;;;4.79;84.43;93729.44;5094108;28;20228;-78
2020/12/06 01:14:07;;;;;;;27.73;20.80;;;;;;;4.80;84.03;93748.06;5094064;28;20204;-78
2020/12/06 01:16:33;;;;;;;28.83;20.63;;;;;;;4.75;83.98;93750.38;5074223;28;20262;-78
2020/12/06 01:18:59;;;;;;;26.40;20.50;;;;;;;4.73;83.52;93753.09;5087558;28;20203;-76
2020/12/06 01:21:25;;;;;;;29.90;21.20;;;;;;;4.65;84.32;93760.09;5075205;28;20209;-78
2020/12/06 01:23:51;;;;;;;28.10;20.43;;;;;;;4.66;84.80;93747.16;5085423;28;20200;-78
2020/12/06 01:26:17;;;;;;;25.77;20.23;;;;;;;4.69;84.79;93738.38;5094022;28;20219;-78
2020/12/06 01:28:44;;;;;;;25.60;20.53;;;;;;;4.73;84.35;93719.19;5083530;28;20221;-79
2020/12/06 01:31:10;;;;;;;26.80;20.47;;;;;;;4.72;84.81;93713.28;5089814;28;20207;-78
2020/12/06 01:33:35;;;;;;;27.90;20.87;;;;;;;4.70;84.79;93730.53;5053420;28;20826;-78
2020/12/06 01:36:01;;;;;;;27.53;20.77;;;;;;;4.70;84.70;93761.13;5052751;28;20221;-80
2020/12/06 01:38:27;;;;;;;28.57;21.33;;;;;;;4.65;84.84;93750.69;5091491;28;20192;-78
2020/12/06 01:40:53;;;;;;;33.23;23.33;;;;;;;4.60;85.27;93752.22;5079963;28;20250;-78
2020/12/06 01:43:19;;;;;;;33.23;23.17;;;;;;;4.54;85.54;93748.66;5074458;28;20698;-78
2020/12/06 01:45:46;;;;;;;39.47;25.93;;;;;;;4.53;85.62;93731.78;5085784;28;20220;-78
2020/12/06 01:48:12;;;;;;;36.43;24.80;;;;;;;4.51;85.64;93731.97;5093951;28;20204;-79
2020/12/06 01:50:39;;;;;;;42.63;26.17;;;;;;;4.48;85.78;93732.34;5082639;28;20209;-77
2020/12/06 01:53:06;;;;;;;41.87;27.03;;;;;;;4.43;86.30;93706.63;5073725;28;20204;-78
2020/12/06 01:55:32;;;;;;;41.83;27.27;;;;;;;4.41;86.79;93677.22;5088739;28;20786;-78
2020/12/06 01:58:04;;;;;;;44.00;27.53;;;;;;;4.38;86.87;93683.47;5095088;28;20211;-80
2020/12/06 02:00:31;;;;;;;41.77;26.77;;;;;;;4.39;86.28;93697.00;5079848;28;20211;-79
2020/12/06 02:02:58;;;;;;;47.03;28.27;;;;;;;4.36;86.94;93728.72;5073231;28;20204;-76
2020/12/06 02:05:25;;;;;;;43.33;27.33;;;;;;;4.36;86.94;93736.38;5086887;28;20216;-78
2020/12/06 02:07:52;;;;;;;42.70;26.73;;;;;;;4.39;86.78;93714.84;5093958;28;20196;-78
2020/12/06 02:10:18;;;;;;;42.27;27.43;;;;;;;4.38;86.91;93708.16;5066354;28;20604;-79
2020/12/06 02:12:49;;;;;;;95.70;29.97;;;;;;;4.36;86.60;93695.59;5054250;28;20232;-78
2020/12/06 02:15:15;;;;;;;44.70;27.10;;;;;;;4.09;88.67;93692.06;5066729;28;20221;-77
2020/12/06 02:17:41;;;;;;;43.70;27.23;;;;;;;4.16;88.36;93682.72;5077968;28;20622;-78
2020/12/06 02:20:08;;;;;;;44.10;27.27;;;;;;;4.24;88.00;93663.97;5078290;28;20251;-78
2020/12/06 02:22:34;;;;;;;38.27;25.87;;;;;;;4.32;87.41;93663.84;5077774;28;20282;-78
2020/12/06 02:25:00;;;;;;;46.73;27.27;;;;;;;4.30;87.32;93653.03;5089760;28;20580;-77
2020/12/06 02:27:26;;;;;;;45.57;27.07;;;;;;;4.35;87.11;93650.72;5097967;28;20561;-77
2020/12/06 02:29:52;;;;;;;41.63;26.17;;;;;;;4.29;87.35;93646.38;5087559;28;20192;-79
2020/12/06 02:32:18;;;;;;;40.33;25.97;;;;;;;4.33;87.22;93624.66;5077799;28;20201;-77
2020/12/06 02:34:44;;;;;;;40.30;26.57;;;;;;;4.38;87.00;93636.84;5076591;28;20293;-78
2020/12/06 02:37:10;;;;;;;45.13;28.17;;;;;;;4.39;87.09;93640.97;5080886;28;20200;-79
2020/12/06 02:39:36;;;;;;;45.90;27.50;;;;;;;4.29;87.52;93637.94;5097595;28;20283;-77
2020/12/06 02:42:03;;;;;;;46.73;29.07;;;;;;;4.29;87.57;93648.91;5095090;28;20230;-78
2020/12/06 02:44:29;;;;;;;50.20;29.73;;;;;;;4.36;87.18;93638.78;5076748;28;20718;-80
2020/12/06 02:46:55;;;;;;;43.73;27.13;;;;;;;4.41;87.02;93634.72;5077588;28;20200;-79
2020/12/06 02:49:21;;;;;;;41.90;26.50;;;;;;;4.46;86.23;93636.69;5096639;28;20234;-78
2020/12/06 02:51:47;;;;;;;37.93;25.03;;;;;;;4.48;86.10;93634.72;5097209;28;20245;-78
2020/12/06 02:54:17;;;;;;;50.97;26.60;;;;;;;4.42;85.99;93631.19;5082323;28;20188;-77
2020/12/06 02:56:43;;;;;;;53.70;27.57;;;;;;;4.33;86.69;93632.28;5097042;28;20600;-78
2020/12/06 02:59:08;;;;;;;81.77;27.93;;;;;;;4.26;87.15;93643.41;5082460;28;20196;-77
2020/12/06 03:01:34;;;;;;;46.23;27.27;;;;;;;4.23;87.43;93613.22;5077273;28;20197;-78
2020/12/06 03:04:00;;;;;;;96.10;28.67;;;;;;;4.02;88.44;93588.59;5092536;28;20789;-79
2020/12/06 03:06:26;;;;;;;38.57;25.17;;;;;;;4.11;88.17;93570.44;5088519;28;20205;-77
2020/12/06 03:08:53;;;;;;;35.87;23.90;;;;;;;4.19;87.36;93569.53;5076956;28;20240;-79
2020/12/06 03:11:25;;;;;;;36.63;24.03;;;;;;;4.23;86.88;93552.91;5076872;28;20611;-78
2020/12/06 03:13:51;;;;;;;33.30;24.20;;;;;;;4.29;86.83;93580.16;5077687;28;20215;-77
2020/12/06 03:16:17;;;;;;;40.30;23.77;;;;;;;4.19;86.87;93577.16;5096695;28;20273;-77
2020/12/06 03:18:42;;;;;;;43.83;24.50;;;;;;;4.08;87.28;93586.09;5096134;28;20200;-78
2020/12/06 03:21:08;;;;;;;34.33;23.17;;;;;;;4.11;87.63;93598.44;5076331;28;20595;-78
2020/12/06 03:23:34;;;;;;;39.33;23.67;;;;;;;4.07;87.49;93587.06;5076467;28;20201;-77
2020/12/06 03:26:00;;;;;;;33.70;24.27;;;;;;;4.02;87.78;93596.25;5095488;28;20224;-77
2020/12/06 03:28:27;;;;;;;36.90;23.97;;;;;;;4.07;87.54;93607.44;5096353;28;20570;-77
2020/12/06 03:30:53;;;;;;;45.33;22.83;;;;;;;4.09;87.25;93600.41;5078067;28;20266;-79
2020/12/06 03:33:19;;;;;;;32.07;23.27;;;;;;;4.15;86.46;93606.50;5076394;28;20205;-78
2020/12/06 03:35:45;;;;;;;77.77;23.37;;;;;;;4.10;85.75;93588.44;5076780;28;20221;-78
2020/12/06 03:38:10;;;;;;;29.70;20.93;;;;;;;4.11;86.08;93593.38;5088198;28;20544;-79
2020/12/06 03:40:36;;;;;;;27.77;20.83;;;;;;;4.18;86.05;93595.97;5079589;28;20239;-78
2020/12/06 03:43:02;;;;;;;41.30;21.53;;;;;;;4.06;86.45;93580.41;5094119;28;20196;-78
2020/12/06 03:45:29;;;;;;;34.33;21.53;;;;;;;3.99;86.56;93601.69;5095381;28;20302;-78
2020/12/06 03:47:55;;;;;;;30.27;21.10;;;;;;;3.98;87.01;93606.00;5078905;28;20201;-78
2020/12/06 03:50:21;;;;;;;30.70;21.40;;;;;;;4.00;86.37;93603.28;5090047;28;20261;-78
2020/12/06 03:52:47;;;;;;;27.30;20.00;;;;;;;4.00;86.12;93591.34;5096328;28;20203;-79
2020/12/06 03:55:13;;;;;;;28.73;21.07;;;;;;;4.01;85.91;93610.72;5095739;28;20224;-77
2020/12/06 03:57:39;;;;;;;26.03;19.90;;;;;;;4.05;85.96;93604.28;5087520;28;20232;-77
2020/12/06 04:00:05;;;;;;;28.67;21.03;;;;;;;4.01;85.69;93599.75;5079845;28;20204;-77
2020/12/06 04:02:32;;;;;;;29.33;21.17;;;;;;;4.00;86.07;93591.34;5082169;28;20203;-78
2020/12/06 04:04:58;;;;;;;46.20;22.80;;;;;;;3.96;86.76;93591.88;5080325;28;20223;-77
2020/12/06 04:07:24;;;;;;;31.00;22.10;;;;;;;3.98;86.97;93602.69;5080823;28;20203;-77
2020/12/06 04:09:50;;;;;;;31.20;22.60;;;;;;;4.01;86.52;93592.91;5085749;28;20208;-78
2020/12/06 04:12:16;;;;;;;57.33;24.17;;;;;;;3.91;87.42;93591.66;5078776;28;20253;-78
2020/12/06 04:14:42;;;;;;;36.67;23.53;;;;;;;3.94;87.21;93598.91;5095011;28;20258;-78
2020/12/06 04:17:08;;;;;;;36.47;24.87;;;;;;;3.86;88.33;93599.81;5092164;28;20269;-78
2020/12/06 04:19:35;;;;;;;37.87;24.97;;;;;;;3.90;87.66;93593.41;5085709;28;20200;-79
2020/12/06 04:22:05;;;;;;;119.13;27.90;;;;;;;3.91;87.72;93596.75;5093484;28;20253;-80
2020/12/06 04:24:31;;;;;;;43.70;25.50;;;;;;;3.90;87.44;93592.63;5074968;28;20703;-77
2020/12/06 04:26:57;;;;;;;41.83;25.33;;;;;;;3.93;87.71;93604.97;5075093;28;20205;-77
2020/12/06 04:29:23;;;;;;;36.60;24.63;;;;;;;3.93;87.36;93597.34;5085676;28;20207;-78
2020/12/06 04:31:49;;;;;;;35.27;23.97;;;;;;;3.95;87.25;93598.75;5074694;28;20216;-78
2020/12/06 04:34:15;;;;;;;36.13;24.37;;;;;;;3.99;86.86;93597.41;5093107;28;20693;-79
2020/12/06 04:36:42;;;;;;;37.37;23.67;;;;;;;3.97;86.50;93578.97;5094830;28;20634;-78
2020/12/06 04:39:08;;;;;;;35.60;23.43;;;;;;;3.91;87.02;93576.38;5082961;28;20214;-76
2020/12/06 04:41:34;;;;;;;38.13;24.57;;;;;;;3.82;87.67;93603.75;5082500;28;20201;-79
2020/12/06 04:44:00;;;;;;;39.70;25.97;;;;;;;3.84;87.80;93601.00;5074280;28;20205;-78
2020/12/06 04:46:27;;;;;;;39.77;25.97;;;;;;;3.87;87.53;93606.50;5075155;28;20611;-77
2020/12/06 04:49:04;;;;;;;50.93;24.50;;;;;;;3.89;88.09;93608.84;5078958;28;20222;-78
2020/12/06 04:51:40;;;;;;;35.90;24.30;;;;;;;3.88;87.74;93614.91;5094245;28;20253;-78
2020/12/06 04:54:08;;;;;;;37.73;24.67;;;;;;;3.89;88.11;93644.50;5093792;28;20199;-78
2020/12/06 04:56:36;;;;;;;38.53;25.90;;;;;;;3.88;88.38;93651.34;5095064;28;20216;-79
2020/12/06 04:59:03;;;;;;;48.10;26.07;;;;;;;3.90;88.16;93664.69;5092404;28;20196;-79
2020/12/06 05:01:34;;;;;;;37.70;24.33;;;;;;;3.97;87.89;93662.19;5074180;28;20204;-79
2020/12/06 05:04:09;;;;;;;36.00;24.73;;;;;;;4.00;87.16;93641.47;5078614;28;20188;-78
2020/12/06 05:06:38;;;;;;;33.47;23.97;;;;;;;3.98;87.32;93635.78;5094136;28;20227;-79
2020/12/06 05:09:07;;;;;;;34.77;23.07;;;;;;;3.94;87.48;93632.00;5088468;28;20193;-79
2020/12/06 05:11:35;;;;;;;32.60;23.00;;;;;;;3.88;87.40;93638.63;5085010;28;20269;-78
2020/12/06 05:14:01;;;;;;;32.07;23.13;;;;;;;3.92;87.45;93661.94;5088807;28;20196;-77
2020/12/06 05:16:29;;;;;;;31.87;22.50;;;;;;;3.84;87.91;93670.50;5074329;28;20224;-77
2020/12/06 05:18:55;;;;;;;34.50;22.87;;;;;;;3.88;87.11;93681.09;5078598;28;20332;-78
2020/12/06 05:21:33;;;;;;;35.30;23.33;;;;;;;3.86;87.07;93681.28;5094331;28;20700;-78
2020/12/06 05:23:59;;;;;;;41.63;22.47;;;;;;;3.87;86.74;93687.16;5089260;28;20590;-77
2020/12/06 05:26:26;;;;;;;33.63;22.10;;;;;;;3.78;86.43;93683.97;5073470;28;20204;-78
2020/12/06 05:28:53;;;;;;;32.00;20.63;;;;;;;3.69;86.44;93688.38;5074328;28;20197;-77
2020/12/06 05:31:18;;;;;;;29.67;21.60;;;;;;;3.59;87.45;93700.59;5074361;28;20212;-76
2020/12/06 05:33:44;;;;;;;27.63;21.80;;;;;;;3.63;86.96;93713.75;5072644;28;20193;-79
2020/12/06 05:36:11;;;;;;;28.90;21.57;;;;;;;3.66;86.75;93698.91;5073615;28;20247;-78
2020/12/06 05:38:37;;;;;;;30.20;21.53;;;;;;;3.63;87.10;93695.94;5075504;28;20201;-80
2020/12/06 05:41:07;;;;;;;29.53;20.93;;;;;;;3.59;87.28;93695.53;5094144;28;20252;-77
2020/12/06 05:43:33;;;;;;;30.03;21.70;;;;;;;3.59;87.58;93707.44;5076721;28;20258;-77
2020/12/06 05:46:07;;;;;;;30.53;21.97;;;;;;;3.61;87.08;93692.81;5094495;28;20219;-78
2020/12/06 05:48:33;;;;;;;40.67;22.53;;;;;;;3.60;87.09;93697.09;5077263;28;20217;-77
2020/12/06 05:51:00;;;;;;;35.07;23.33;;;;;;;3.56;87.66;93667.91;5077144;28;20209;-77
2020/12/06 05:53:28;;;;;;;32.97;22.73;;;;;;;3.55;87.93;93657.91;5093221;28;20207;-78
2020/12/06 05:56:05;;;;;;;33.00;23.10;;;;;;;3.62;87.82;93658.75;5057714;28;20259;-78
2020/12/06 05:58:32;;;;;;;32.43;22.63;;;;;;;3.62;87.59;93661.31;5090092;28;20199;-78
2020/12/06 06:01:00;;;;;;;37.13;24.47;;;;;;;3.57;87.90;93656.75;5083648;28;20200;-78
2020/12/06 06:03:32;;;;;;;36.23;23.60;;;;;;;3.62;87.74;93659.53;5092257;28;20210;-78
2020/12/06 06:06:02;;;;;;;34.73;23.37;;;;;;;3.51;88.74;93647.28;5097976;28;20219;-78
2020/12/06 06:08:29;;;;;;;37.07;24.20;;;;;;;3.56;88.62;93645.00;5083974;28;20199;-79
2020/12/06 06:11:15;;;;;;;36.33;24.63;;;;;;;3.66;88.09;93655.66;5057819;28;20206;-78
2020/12/06 06:13:47;;;;;;;35.03;23.87;;;;;;;3.66;88.84;93654.84;5086585;28;20211;-78
2020/12/06 06:16:14;;;;;;;41.10;25.30;;;;;;;3.64;88.53;93647.44;5077498;28;20260;-76
2020/12/06 06:18:44;;;;;;;41.03;25.83;;;;;;;3.63;88.38;93648.41;5091662;28;20667;-78
2020/12/06 06:21:11;;;;;;;37.73;24.87;;;;;;;3.73;88.03;93655.72;5098556;28;20200;-78
2020/12/06 06:23:38;;;;;;;38.33;24.83;;;;;;;3.72;87.39;93654.94;5084395;28;20208;-78
2020/12/06 06:26:05;;;;;;;44.37;26.30;;;;;;;3.58;87.89;93685.53;5097658;28;20212;-79
2020/12/06 06:28:31;;;;;;;45.27;28.10;;;;;;;3.45;89.61;93681.88;5085076;28;20202;-78
2020/12/06 06:30:57;;;;;;;40.43;25.83;;;;;;;3.49;89.55;93684.84;5077406;28;20201;-79
2020/12/06 06:33:24;;;;;;;43.60;27.00;;;;;;;3.50;89.07;93694.03;5080645;28;20201;-79
2020/12/06 06:35:51;;;;;;;45.50;28.37;;;;;;;3.52;89.72;93712.47;5076799;28;20309;-80
2020/12/06 06:38:20;;;;;;;43.37;26.17;;;;;;;3.49;89.79;93723.00;5079115;28;20184;-78
2020/12/06 06:40:50;;;;;;;43.57;26.00;;;;;;;3.43;90.40;93716.09;5094212;28;20224;-77
2020/12/06 06:43:17;;;;;;;42.33;27.23;;;;;;;3.43;90.50;93701.63;5087952;28;20246;-77
2020/12/06 06:45:44;;;;;;;39.03;25.57;;;;;;;3.52;89.81;93698.94;5098304;22;20255;-78
2020/12/06 06:48:15;;;;;;;37.40;25.23;;;;;;;3.61;89.19;93697.88;5093897;28;20203;-77
2020/12/06 06:50:40;;;;;;;38.57;24.53;;;;;;;3.62;88.35;93692.63;5085254;28;20188;-80
2020/12/06 06:53:09;;;;;;;36.87;24.30;;;;;;;3.61;88.29;93708.84;5088537;28;20184;-78
2020/12/06 06:55:48;;;;;;;35.57;23.97;;;;;;;3.67;87.98;93704.78;5080775;28;20632;-78
2020/12/06 06:58:17;;;;;;;36.27;24.03;;;;;;;3.75;87.76;93714.84;5084907;28;20252;-79
2020/12/06 07:00:43;;;;;;;34.90;18.90;;;;;;;4.30;100.00;93711.63;5094794;28;20226;-74
2020/12/06 07:03:12;;;;;;;27.57;18.70;;;;;;;4.95;100.00;93715.59;5089556;28;20667;-76
2020/12/06 07:05:38;;;;;;;28.43;21.93;;;;;;;4.98;84.56;93716.97;5097086;28;20221;-78
2020/12/06 07:08:10;;;;;;;29.73;21.47;;;;;;;4.88;83.05;93714.75;5099778;28;20204;-80
2020/12/06 07:10:39;;;;;;;30.20;21.93;;;;;;;4.70;82.94;93720.34;5101216;28;20207;-78
2020/12/06 07:13:05;;;;;;;33.80;24.17;;;;;;;4.54;83.16;93719.84;5100200;28;20195;-78
2020/12/06 07:15:31;;;;;;;59.80;39.23;;;;;;;4.55;91.80;93721.41;5098745;28;20224;-76
2020/12/06 07:17:58;;;;;;;35.63;24.63;;;;;;;5.00;93.46;93722.69;5076074;28;20610;-76
2020/12/06 07:20:26;;;;;;;32.87;24.13;;;;;;;5.41;90.17;93722.66;5088753;28;20197;-76
2020/12/06 07:22:53;;;;;;;32.73;22.17;;;;;;;5.68;83.45;93733.75;5088385;28;20208;-77
2020/12/06 07:25:20;;;;;;;31.40;22.97;;;;;;;5.93;82.06;93734.84;5083662;28;20619;-77
2020/12/06 07:27:47;;;;;;;29.23;20.90;;;;;;;6.10;80.23;93732.72;5093771;28;20219;-77
2020/12/06 07:30:14;;;;;;;30.00;20.50;;;;;;;6.22;77.80;93738.81;5081613;28;20205;-77
2020/12/06 07:32:40;;;;;;;31.40;21.17;;;;;;;6.34;76.83;93732.16;5087314;28;20224;-76
2020/12/06 07:35:09;;;;;;;29.27;20.13;;;;;;;6.49;76.74;93745.53;5081079;28;20219;-76
2020/12/06 07:37:35;;;;;;;30.23;19.67;;;;;;;6.59;74.98;93753.56;5081195;28;20205;-76
2020/12/06 07:40:04;;;;;;;29.77;20.37;;;;;;;6.65;75.08;93766.56;5074384;28;20201;-77
2020/12/06 07:42:31;;;;;;;28.60;19.27;;;;;;;6.78;74.91;93785.22;5092745;28;20246;-76
2020/12/06 07:44:58;;;;;;;31.20;19.77;;;;;;;6.83;73.09;93788.00;5092295;28;20259;-78
2020/12/06 07:47:25;;;;;;;34.70;20.67;;;;;;;6.36;74.29;93790.72;5081573;28;20192;-79
2020/12/06 07:49:52;;;;;;;32.53;20.80;;;;;;;5.95;75.49;93801.84;5080424;28;20197;-79
2020/12/06 07:52:20;;;;;;;32.20;20.30;;;;;;;5.49;77.30;93804.16;5080993;28;20215;-81
2020/12/06 07:54:54;;;;;;;33.90;19.90;;;;;;;5.11;79.85;93814.75;5094497;28;20202;-81
2020/12/06 07:57:28;;;;;;;31.30;19.83;;;;;;;4.78;82.19;93819.63;5095361;28;20224;-80
2020/12/06 07:59:57;;;;;;;34.43;20.50;;;;;;;4.63;83.51;93823.19;5092819;28;20191;-80
2020/12/06 08:02:24;;;;;;;32.97;19.37;;;;;;;4.53;83.93;93831.16;5090444;28;20211;-81
2020/12/06 08:04:52;;;;;;;32.23;19.60;;;;;;;4.50;84.29;93829.75;5088410;28;20217;-82
2020/12/06 08:07:23;;;;;;;33.03;18.03;;;;;;;4.46;84.75;93831.09;5074158;28;20220;-82
2020/12/06 08:09:51;;;;;;;28.67;17.67;;;;;;;4.36;85.74;93825.53;5080444;28;20536;-81
2020/12/06 08:12:19;;;;;;;29.63;17.80;;;;;;;4.39;85.48;93827.72;5090504;28;20204;-81
2020/12/06 08:14:45;;;;;;;26.20;16.43;;;;;;;4.32;86.38;93824.31;5074842;28;20642;-80
2020/12/06 08:17:12;;;;;;;27.30;16.43;;;;;;;4.40;86.02;93831.06;5090634;28;20216;-81
2020/12/06 08:19:41;;;;;;;23.57;15.50;;;;;;;4.43;85.33;93823.03;5089051;28;20203;-80
2020/12/06 08:22:08;;;;;;;25.37;15.60;;;;;;;4.46;85.48;93822.66;5094180;28;20192;-80
2020/12/06 08:24:34;;;;;;;21.33;14.03;;;;;;;4.45;85.88;93826.19;5073879;28;20205;-80
2020/12/06 08:27:01;;;;;;;22.40;14.77;;;;;;;4.38;85.81;93827.91;5088907;28;20349;-82
2020/12/06 08:29:37;;;;;;;21.13;13.93;;;;;;;4.39;85.86;93829.47;5086647;28;20202;-80
2020/12/06 08:32:04;;;;;;;20.63;13.53;;;;;;;4.45;85.04;93839.72;5076439;28;20219;-80
2020/12/06 08:34:31;;;;;;;18.70;13.10;;;;;;;4.40;85.48;93851.44;5090039;28;20658;-79
2020/12/06 08:37:15;;;;;;;19.10;12.77;;;;;;;4.37;86.50;93862.78;5076454;28;20212;-79
2020/12/06 08:39:41;;;;;;;17.07;11.80;;;;;;;4.40;86.12;93854.78;5083032;28;20201;-81
2020/12/06 08:42:15;;;;;;;17.43;13.40;;;;;;;4.45;86.06;93851.66;5077184;28;20203;-80
2020/12/06 08:44:56;;;;;;;19.27;12.53;;;;;;;4.53;85.36;93851.53;5092993;28;20196;-81
2020/12/06 08:47:23;;;;;;;19.73;12.97;;;;;;;4.47;85.84;93849.72;5087905;28;20197;-81
2020/12/06 08:50:04;;;;;;;17.30;12.50;;;;;;;4.47;85.98;93852.25;5078141;28;20215;-79
2020/12/06 08:52:31;;;;;;;18.87;12.60;;;;;;;4.54;85.83;93859.97;5077027;28;20246;-79
2020/12/06 08:54:58;;;;;;;17.20;12.43;;;;;;;4.53;85.72;93869.38;5092583;28;20216;-79
2020/12/06 08:57:39;;;;;;;17.87;12.43;;;;;;;4.50;85.88;93872.28;5080775;28;20223;-79
2020/12/06 09:00:08;;;;;;;18.57;12.70;;;;;;;4.54;85.98;93867.63;5091747;28;20234;-79
2020/12/06 09:02:33;;;;;;;16.87;12.10;;;;;;;4.52;86.17;93857.63;5083133;28;20616;-79
2020/12/06 09:05:18;;;;;;;20.13;14.77;;;;;;;4.65;85.51;93856.94;5080106;28;20226;-79
2020/12/06 09:07:44;;;;;;;19.10;13.77;;;;;;;4.64;85.46;93863.78;5090526;28;20196;-79
2020/12/06 09:10:32;;;;;;;18.43;13.10;;;;;;;4.76;84.83;93854.69;5073430;28;20231;-79
2020/12/06 09:13:01;;;;;;;16.80;12.50;;;;;;;4.85;85.08;93838.28;5078911;28;20196;-78
2020/12/06 09:15:27;;;;;;;17.87;12.60;;;;;;;4.83;85.30;93834.34;5089198;28;20216;-78
2020/12/06 09:17:53;;;;;;;17.30;12.77;;;;;;;4.88;84.89;93839.69;5074720;28;20243;-79
2020/12/06 09:20:19;;;;;;;19.13;12.60;;;;;;;4.89;84.59;93833.63;5084128;28;20199;-79
2020/12/06 09:22:45;;;;;;;17.33;12.80;;;;;;;4.93;84.38;93829.72;5085043;28;20193;-82
2020/12/06 09:25:11;;;;;;;17.47;12.93;;;;;;;4.92;84.74;93820.50;5092676;28;20227;-80
2020/12/06 09:27:37;;;;;;;16.43;12.17;;;;;;;4.88;84.48;93814.19;5088064;28;20193;-81
2020/12/06 09:30:03;;;;;;;16.67;12.27;;;;;;;4.82;84.55;93827.66;5082847;28;20207;-81
2020/12/06 09:32:29;;;;;;;17.77;13.03;;;;;;;4.72;85.51;93822.91;5080272;28;20197;-81
2020/12/06 09:34:55;;;;;;;16.67;12.83;;;;;;;4.76;85.83;93808.81;5088759;28;20541;-84
2020/12/06 09:37:22;;;;;;;16.87;12.53;;;;;;;4.91;85.03;93808.72;5079611;28;20224;-84
2020/12/06 09:39:48;;;;;;;14.90;11.87;;;;;;;4.94;84.70;93821.09;5091345;28;20674;-78
2020/12/06 09:42:13;;;;;;;15.77;11.90;;;;;;;5.00;84.41;93811.94;5082930;28;20197;-82
2020/12/06 09:44:39;;;;;;;15.47;11.67;;;;;;;5.02;84.03;93813.31;5079621;28;20197;-77
2020/12/06 09:47:05;;;;;;;15.13;11.40;;;;;;;5.11;83.85;93827.50;5079468;28;20269;-77
2020/12/06 09:49:31;;;;;;;14.87;11.37;;;;;;;5.07;83.69;93833.94;5101554;28;20292;-79
2020/12/06 09:51:57;;;;;;;15.97;12.00;;;;;;;5.09;83.70;93828.66;5092962;28;20201;-84
2020/12/06 09:54:24;;;;;;;17.17;11.60;;;;;;;5.18;83.87;93825.78;5089669;28;20196;-79
2020/12/06 09:56:50;;;;;;;15.83;11.57;;;;;;;5.28;82.79;93814.44;5093687;28;20246;-81
2020/12/06 09:59:16;;;;;;;16.77;10.23;;;;;;;5.24;82.11;93821.69;5092462;28;20589;-78
2020/12/06 10:01:42;;;;;;;13.67;10.00;;;;;;;5.46;87.61;93823.19;5094081;28;20204;-78
2020/12/06 10:04:08;;;;;;;14.40;11.47;;;;;;;5.58;82.04;93817.56;5083934;28;20207;-77
2020/12/06 10:06:34;;;;;;;13.63;10.70;;;;;;;5.65;81.76;93826.81;5080963;28;20224;-77
2020/12/06 10:08:59;;;;;;;13.77;10.13;;;;;;;5.62;81.05;93823.84;5074693;28;20201;-75
2020/12/06 10:11:26;;;;;;;12.57;10.00;;;;;;;5.59;81.33;93825.00;5083950;28;20201;-77
2020/12/06 10:13:52;;;;;;;13.43;10.00;;;;;;;5.67;81.17;93822.31;5082951;28;20714;-79
2020/12/06 10:16:18;;;;;;;13.53;9.77;;;;;;;5.66;81.66;93813.06;5081090;28;20224;-77
2020/12/06 10:18:45;;;;;;;12.63;10.23;;;;;;;5.77;81.86;93794.66;5084304;28;20275;-78
2020/12/06 10:21:13;;;;;;;13.67;9.47;;;;;;;5.81;80.99;93789.97;5073860;28;20204;-77
2020/12/06 10:23:39;;;;;;;12.13;9.33;;;;;;;5.92;80.79;93784.34;5072742;28;20255;-75
2020/12/06 10:26:05;;;;;;;12.13;9.30;;;;;;;6.03;80.64;93777.88;5072932;28;20217;-77
2020/12/06 10:28:32;;;;;;;11.77;9.40;;;;;;;6.06;80.34;93772.38;5073266;28;20205;-79
2020/12/06 10:30:58;;;;;;;11.03;8.67;;;;;;;6.18;79.31;93778.50;5072731;28;20205;-77
2020/12/06 10:33:24;;;;;;;12.17;9.13;;;;;;;6.26;77.83;93768.09;5072386;28;20614;-77
2020/12/06 10:35:50;;;;;;;15.27;11.43;;;;;;;6.33;77.50;93766.34;5072480;28;20289;-79
2020/12/06 10:38:16;;;;;;;12.33;9.57;;;;;;;6.39;77.85;93780.88;5076195;28;20212;-77
2020/12/06 10:40:42;;;;;;;13.13;9.33;;;;;;;6.41;77.80;93781.47;5076866;28;20215;-78
2020/12/06 10:43:08;;;;;;;11.13;9.13;;;;;;;6.48;77.55;93779.72;5076146;28;20201;-79
2020/12/06 10:45:35;;;;;;;11.17;8.17;;;;;;;6.40;76.76;93772.25;5075749;28;20271;-77
2020/12/06 10:48:01;;;;;;;10.63;8.53;;;;;;;6.45;76.93;93774.22;5076768;28;20205;-78
2020/12/06 10:50:27;;;;;;;10.77;8.37;;;;;;;6.53;76.47;93787.59;5076416;28;20204;-77
2020/12/06 10:52:53;;;;;;;10.50;8.57;;;;;;;6.55;76.79;93787.38;5076659;28;20621;-79
2020/12/06 10:55:24;;;;;;;9.90;7.93;;;;;;;6.61;76.98;93796.03;5075974;28;20591;-77
2020/12/06 10:57:50;;;;;;;12.07;8.93;;;;;;;6.33;77.07;93786.00;5076631;28;20329;-79
2020/12/06 11:00:16;;;;;;;11.47;9.17;;;;;;;6.34;78.06;93775.59;5084723;28;20667;-76
2020/12/06 11:02:46;;;;;;;12.13;9.30;;;;;;;6.30;78.58;93778.72;5096600;28;20200;-77
2020/12/06 11:05:12;;;;;;;10.97;9.07;;;;;;;6.25;78.21;93761.41;5095685;28;20274;-77
2020/12/06 11:07:38;;;;;;;11.50;9.00;;;;;;;6.23;77.73;93766.72;5096714;28;20560;-79
2020/12/06 11:10:04;;;;;;;10.83;9.23;;;;;;;6.15;78.07;93771.25;5096613;28;20215;-78
2020/12/06 11:12:30;;;;;;;12.43;9.27;;;;;;;6.04;78.95;93769.22;5096313;28;20212;-77
2020/12/06 11:14:56;;;;;;;12.40;9.33;;;;;;;6.11;78.86;93773.38;5096080;28;20204;-78
2020/12/06 11:17:22;;;;;;;12.90;9.60;;;;;;;6.13;78.77;93775.75;5096030;28;20215;-79
2020/12/06 11:19:49;;;;;;;14.40;9.90;;;;;;;6.09;78.55;93774.56;5095598;28;20200;-77
2020/12/06 11:22:17;;;;;;;14.47;9.67;;;;;;;6.01;78.40;93761.94;5096528;28;20211;-77
2020/12/06 11:24:43;;;;;;;13.23;9.33;;;;;;;6.02;78.79;93745.66;5095702;28;20214;-77
2020/12/06 11:27:09;;;;;;;12.33;9.50;;;;;;;6.12;78.96;93758.84;5096204;28;20675;-77